createdAt,value
2017-03-09T00:00:55.696Z,0
2017-03-09T00:02:09.210Z,0
2017-03-09T00:03:23.599Z,0
2017-03-09T00:04:38.459Z,0
2017-03-09T00:05:51.945Z,0
2017-03-09T00:07:05.738Z,0
2017-03-09T00:08:19.678Z,0
2017-03-09T00:09:34.137Z,0
2017-03-09T00:10:48.480Z,0
2017-03-09T00:12:02.453Z,0
2017-03-09T00:13:16.004Z,0
2017-03-09T00:14:29.577Z,0
2017-03-09T00:15:43.531Z,0
2017-03-09T00:16:57.419Z,0
2017-03-09T00:18:11.721Z,0
2017-03-09T00:19:26.012Z,0
2017-03-09T00:20:39.930Z,0
2017-03-09T00:21:53.457Z,0
2017-03-09T00:23:07.367Z,0
2017-03-09T00:24:21.347Z,0
2017-03-09T00:25:35.259Z,0
2017-03-09T00:26:49.307Z,0
2017-03-09T00:28:02.810Z,0
2017-03-09T00:29:16.732Z,0
2017-03-09T00:30:31.246Z,0
2017-03-09T00:31:45.029Z,0
2017-03-09T00:32:59.357Z,0
2017-03-09T00:34:13.310Z,0
2017-03-09T00:35:27.660Z,0
2017-03-09T00:36:41.150Z,0
2017-03-09T00:37:55.871Z,0
2017-03-09T00:39:09.799Z,0
2017-03-09T00:40:24.210Z,0
2017-03-09T00:41:37.687Z,0
2017-03-09T00:42:51.944Z,0
2017-03-09T00:44:06.921Z,0
2017-03-09T00:45:21.020Z,0
2017-03-09T00:46:34.540Z,0
2017-03-09T00:47:48.092Z,0
2017-03-09T00:49:01.589Z,0
2017-03-09T00:50:18.122Z,0
2017-03-09T00:51:32.077Z,0
2017-03-09T00:52:46.458Z,0
2017-03-09T00:54:00.553Z,0
2017-03-09T00:55:14.943Z,0
2017-03-09T00:56:29.378Z,0
2017-03-09T00:57:42.931Z,0
2017-03-09T00:58:56.959Z,0
2017-03-09T01:00:10.490Z,0
2017-03-09T01:01:24.575Z,0
2017-03-09T01:02:39.419Z,0
2017-03-09T01:03:52.974Z,0
2017-03-09T01:05:06.913Z,0
2017-03-09T01:06:20.888Z,0
2017-03-09T01:07:34.449Z,0
2017-03-09T01:08:48.267Z,0
2017-03-09T01:10:02.185Z,0
2017-03-09T01:11:15.624Z,0
2017-03-09T01:12:29.195Z,0
2017-03-09T01:13:42.690Z,0
2017-03-09T01:14:56.599Z,0
2017-03-09T01:16:10.721Z,0
2017-03-09T01:17:24.348Z,0
2017-03-09T01:18:38.260Z,0
2017-03-09T01:19:51.751Z,0
2017-03-09T01:21:05.602Z,0
2017-03-09T01:22:19.891Z,0
2017-03-09T01:23:33.410Z,0
2017-03-09T01:25:12.652Z,0
2017-03-09T01:26:27.004Z,0
2017-03-09T01:27:41.007Z,0
2017-03-09T01:28:54.943Z,0
2017-03-09T01:30:08.809Z,0
2017-03-09T01:31:22.367Z,0
2017-03-09T01:32:36.706Z,0
2017-03-09T01:33:50.276Z,0
2017-03-09T01:35:03.827Z,0
2017-03-09T01:36:17.464Z,0
2017-03-09T01:37:32.092Z,0
2017-03-09T01:38:45.945Z,0
2017-03-09T01:40:01.127Z,0
2017-03-09T01:41:14.625Z,0
2017-03-09T01:42:28.149Z,0
2017-03-09T01:43:42.051Z,0
2017-03-09T01:44:55.848Z,0
2017-03-09T01:46:09.489Z,0
2017-03-09T01:47:23.409Z,0
2017-03-09T01:48:36.923Z,0
2017-03-09T01:49:50.589Z,0
2017-03-09T01:51:04.529Z,0
2017-03-09T01:52:18.573Z,0
2017-03-09T01:53:32.092Z,0
2017-03-09T01:54:45.968Z,0
2017-03-09T01:56:03.895Z,0
2017-03-09T01:57:25.585Z,0
2017-03-09T01:58:39.760Z,0
2017-03-09T01:59:57.082Z,0
2017-03-09T02:01:13.840Z,0
2017-03-09T02:02:27.300Z,0
2017-03-09T02:03:41.247Z,0
2017-03-09T02:04:54.691Z,0
2017-03-09T02:06:08.127Z,0
2017-03-09T02:07:23.769Z,0
2017-03-09T02:08:37.697Z,0
2017-03-09T02:09:51.270Z,0
2017-03-09T02:11:04.777Z,0
2017-03-09T02:12:18.188Z,0
2017-03-09T02:13:31.613Z,0
2017-03-09T02:14:45.387Z,0
2017-03-09T02:15:58.819Z,0
2017-03-09T02:17:12.257Z,0
2017-03-09T02:18:25.691Z,0
2017-03-09T02:19:39.245Z,0
2017-03-09T02:20:52.970Z,0
2017-03-09T02:22:06.461Z,0
2017-03-09T02:23:20.348Z,0
2017-03-09T02:24:33.897Z,0
2017-03-09T02:25:47.368Z,0
2017-03-09T02:27:01.147Z,0
2017-03-09T02:28:14.588Z,0
2017-03-09T02:29:28.581Z,0
2017-03-09T02:30:42.490Z,0
2017-03-09T02:31:56.769Z,0
2017-03-09T02:33:10.922Z,0
2017-03-09T02:34:24.325Z,0
2017-03-09T02:35:38.264Z,0
2017-03-09T02:36:51.805Z,0
2017-03-09T02:38:05.299Z,0
2017-03-09T02:39:18.995Z,0
2017-03-09T02:40:32.457Z,0
2017-03-09T02:41:46.145Z,0
2017-03-09T02:42:59.874Z,0
2017-03-09T02:44:13.748Z,0
2017-03-09T02:45:27.505Z,0
2017-03-09T02:46:41.149Z,0
2017-03-09T02:47:54.657Z,0
2017-03-09T02:49:08.074Z,0
2017-03-09T02:50:21.510Z,0
2017-03-09T02:51:35.338Z,0
2017-03-09T02:52:49.607Z,0
2017-03-09T02:54:03.065Z,0
2017-03-09T02:55:16.522Z,0
2017-03-09T02:56:30.494Z,0
2017-03-09T02:57:44.176Z,0
2017-03-09T02:58:58.052Z,0
2017-03-09T03:00:11.513Z,0
2017-03-09T03:01:25.349Z,0
2017-03-09T03:02:39.402Z,0
2017-03-09T03:03:53.102Z,0
2017-03-09T03:05:06.557Z,0
2017-03-09T03:06:19.994Z,0
2017-03-09T03:07:33.474Z,0
2017-03-09T03:08:47.381Z,0
2017-03-09T03:10:01.160Z,0
2017-03-09T03:11:14.604Z,0
2017-03-09T03:12:28.080Z,0
2017-03-09T03:13:41.517Z,0
2017-03-09T03:14:54.935Z,0
2017-03-09T03:16:08.718Z,0
2017-03-09T03:17:22.145Z,0
2017-03-09T03:18:35.632Z,0
2017-03-09T03:19:49.034Z,0
2017-03-09T03:21:02.869Z,0
2017-03-09T03:22:16.593Z,0
2017-03-09T03:23:32.225Z,0
2017-03-09T03:24:45.686Z,0
2017-03-09T03:25:59.109Z,0
2017-03-09T03:27:13.414Z,0
2017-03-09T03:28:28.087Z,0
2017-03-09T03:29:41.569Z,0
2017-03-09T03:30:55.049Z,0
2017-03-09T03:32:08.893Z,0
2017-03-09T03:33:22.429Z,0
2017-03-09T03:34:36.331Z,0
2017-03-09T03:35:50.230Z,0
2017-03-09T03:37:03.705Z,0
2017-03-09T03:38:17.165Z,0
2017-03-09T03:39:30.775Z,0
2017-03-09T03:40:45.035Z,0
2017-03-09T03:41:58.576Z,0
2017-03-09T03:43:12.044Z,0
2017-03-09T03:44:25.817Z,0
2017-03-09T03:45:39.457Z,0
2017-03-09T03:46:53.281Z,0
2017-03-09T03:48:06.858Z,0
2017-03-09T03:49:20.616Z,0
2017-03-09T03:50:34.281Z,0
2017-03-09T03:51:48.283Z,0
2017-03-09T03:53:02.257Z,0
2017-03-09T03:54:15.912Z,0
2017-03-09T03:55:36.621Z,0
2017-03-09T03:56:50.708Z,0
2017-03-09T03:58:04.333Z,0
2017-03-09T03:59:18.708Z,0
2017-03-09T04:00:32.295Z,0
2017-03-09T04:01:45.836Z,0
2017-03-09T04:02:59.318Z,0
2017-03-09T04:04:13.615Z,0
2017-03-09T04:05:27.402Z,0
2017-03-09T04:06:40.940Z,0
2017-03-09T04:07:54.405Z,0
2017-03-09T04:09:09.178Z,0
2017-03-09T04:10:22.628Z,0
2017-03-09T04:11:36.453Z,0
2017-03-09T04:12:49.932Z,0
2017-03-09T04:14:03.616Z,0
2017-03-09T04:15:17.487Z,0
2017-03-09T04:16:31.596Z,0
2017-03-09T04:17:45.873Z,0
2017-03-09T04:18:59.776Z,0
2017-03-09T04:20:13.253Z,0
2017-03-09T04:24:41.938Z,0
2017-03-09T04:25:55.436Z,0
2017-03-09T04:27:09.722Z,0
2017-03-09T04:28:23.214Z,0
2017-03-09T04:29:36.807Z,0
2017-03-09T04:30:50.516Z,0
2017-03-09T04:32:04.561Z,0
2017-03-09T04:33:18.431Z,0
2017-03-09T04:34:32.448Z,0
2017-03-09T04:35:46.507Z,0
2017-03-09T04:37:00.290Z,0
2017-03-09T04:38:14.562Z,0
2017-03-09T04:39:28.477Z,0
2017-03-09T04:40:42.037Z,0
2017-03-09T04:41:58.167Z,0
2017-03-09T04:43:11.907Z,0
2017-03-09T04:44:25.753Z,0
2017-03-09T04:45:39.232Z,0
2017-03-09T04:46:52.739Z,0
2017-03-09T04:48:06.585Z,0
2017-03-09T04:49:20.392Z,0
2017-03-09T04:50:34.399Z,0
2017-03-09T04:51:48.571Z,0
2017-03-09T04:53:02.123Z,0
2017-03-09T04:54:15.622Z,0
2017-03-09T04:55:30.219Z,0
2017-03-09T04:56:44.499Z,0
2017-03-09T04:57:58.058Z,0
2017-03-09T04:59:11.568Z,0
2017-03-09T05:00:25.191Z,0
2017-03-09T05:01:39.909Z,0
2017-03-09T05:02:53.617Z,0
2017-03-09T05:04:07.203Z,0
2017-03-09T05:05:21.166Z,0
2017-03-09T05:06:34.783Z,0
2017-03-09T05:07:49.203Z,0
2017-03-09T05:09:02.649Z,0
2017-03-09T05:10:16.132Z,0
2017-03-09T05:11:29.969Z,0
2017-03-09T05:12:43.474Z,0
2017-03-09T05:13:57.239Z,0
2017-03-09T05:15:10.688Z,0
2017-03-09T05:16:24.108Z,0
2017-03-09T05:17:37.624Z,0
2017-03-09T05:18:51.102Z,0
2017-03-09T05:20:05.307Z,0
2017-03-09T05:21:18.751Z,0
2017-03-09T05:22:32.787Z,0
2017-03-09T05:23:46.628Z,0
2017-03-09T05:25:00.115Z,0
2017-03-09T05:26:13.860Z,0
2017-03-09T05:27:27.602Z,0
2017-03-09T05:28:41.167Z,4
2017-03-09T05:29:54.653Z,4
2017-03-09T05:31:08.166Z,0
2017-03-09T05:32:22.460Z,4
2017-03-09T05:33:35.978Z,4
2017-03-09T05:34:49.977Z,4
2017-03-09T05:36:03.415Z,8
2017-03-09T05:37:17.424Z,8
2017-03-09T05:38:31.184Z,8
2017-03-09T05:40:42.356Z,12
2017-03-09T05:43:25.615Z,16
2017-03-09T05:48:58.776Z,28
2017-03-09T05:50:12.248Z,32
2017-03-09T05:51:25.689Z,44
2017-03-09T05:52:39.121Z,44
2017-03-09T05:53:52.685Z,48
2017-03-09T05:55:06.405Z,48
2017-03-09T05:56:20.669Z,56
2017-03-09T05:57:34.128Z,64
2017-03-09T05:58:47.539Z,76
2017-03-09T06:00:01.051Z,68
2017-03-09T06:01:14.777Z,72
2017-03-09T06:02:28.364Z,84
2017-03-09T06:03:44.004Z,92
2017-03-09T06:04:57.525Z,100
2017-03-09T06:06:10.962Z,100
2017-03-09T06:07:25.103Z,96
2017-03-09T06:08:39.077Z,112
2017-03-09T06:09:52.703Z,112
2017-03-09T06:11:07.550Z,120
2017-03-09T06:12:20.976Z,120
2017-03-09T06:13:34.754Z,140
2017-03-09T06:14:48.508Z,180
2017-03-09T06:16:02.764Z,212
2017-03-09T06:17:16.209Z,248
2017-03-09T06:18:29.748Z,264
2017-03-09T06:19:43.450Z,292
2017-03-09T06:20:57.797Z,300
2017-03-09T06:22:11.285Z,288
2017-03-09T06:23:24.763Z,288
2017-03-09T06:24:39.130Z,272
2017-03-09T06:25:52.973Z,256
2017-03-09T06:27:06.518Z,256
2017-03-09T06:28:20.070Z,252
2017-03-09T06:29:33.903Z,296
2017-03-09T06:30:47.406Z,320
2017-03-09T06:32:01.234Z,352
2017-03-09T06:33:14.694Z,356
2017-03-09T06:34:28.524Z,360
2017-03-09T06:35:42.088Z,376
2017-03-09T06:36:56.043Z,384
2017-03-09T06:38:10.198Z,344
2017-03-09T06:39:24.055Z,316
2017-03-09T06:40:37.726Z,292
2017-03-09T06:41:51.377Z,324
2017-03-09T06:43:05.690Z,360
2017-03-09T06:44:19.431Z,404
2017-03-09T06:45:32.968Z,472
2017-03-09T06:46:47.010Z,544
2017-03-09T06:48:00.436Z,592
2017-03-09T06:49:13.913Z,592
2017-03-09T06:50:27.794Z,576
2017-03-09T06:51:41.695Z,544
2017-03-09T06:53:27.313Z,536
2017-03-09T06:54:40.760Z,548
2017-03-09T06:55:54.223Z,568
2017-03-09T06:57:07.747Z,548
2017-03-09T06:58:24.315Z,500
2017-03-09T06:59:38.170Z,496
2017-03-09T07:00:51.667Z,504
2017-03-09T07:02:05.675Z,556
2017-03-09T07:03:19.554Z,552
2017-03-09T07:04:33.216Z,552
2017-03-09T07:05:46.654Z,564
2017-03-09T07:07:00.253Z,628
2017-03-09T07:08:13.784Z,736
2017-03-09T07:09:27.231Z,792
2017-03-09T07:10:40.659Z,940
2017-03-09T07:11:54.196Z,1048
2017-03-09T07:13:08.088Z,1064
2017-03-09T07:14:21.516Z,888
2017-03-09T07:15:35.412Z,760
2017-03-09T07:16:48.881Z,768
2017-03-09T07:18:02.376Z,676
2017-03-09T07:19:16.659Z,616
2017-03-09T07:20:32.323Z,512
2017-03-09T07:21:45.769Z,580
2017-03-09T07:22:59.268Z,704
2017-03-09T07:24:12.849Z,716
2017-03-09T07:25:27.148Z,716
2017-03-09T07:26:40.637Z,612
2017-03-09T07:27:54.117Z,540
2017-03-09T07:29:07.629Z,556
2017-03-09T07:30:21.105Z,556
2017-03-09T07:31:34.535Z,552
2017-03-09T07:32:48.002Z,572
2017-03-09T07:34:01.577Z,564
2017-03-09T07:35:15.075Z,496
2017-03-09T07:36:28.930Z,476
2017-03-09T07:37:43.028Z,440
2017-03-09T07:38:56.449Z,404
2017-03-09T07:40:10.020Z,444
2017-03-09T07:41:23.487Z,472
2017-03-09T07:42:36.956Z,484
2017-03-09T07:43:50.451Z,476
2017-03-09T07:45:04.383Z,460
2017-03-09T07:46:17.824Z,440
2017-03-09T07:47:31.282Z,444
2017-03-09T07:48:44.755Z,512
2017-03-09T07:49:58.307Z,544
2017-03-09T07:51:11.773Z,500
2017-03-09T07:52:25.685Z,484
2017-03-09T07:53:39.149Z,436
2017-03-09T07:54:52.780Z,416
2017-03-09T07:56:06.347Z,436
2017-03-09T07:57:19.816Z,476
2017-03-09T07:58:33.272Z,532
2017-03-09T07:59:46.748Z,536
2017-03-09T08:01:00.311Z,580
2017-03-09T08:02:13.774Z,688
2017-03-09T08:03:27.206Z,792
2017-03-09T08:04:40.604Z,792
2017-03-09T08:05:54.267Z,808
2017-03-09T08:07:07.694Z,848
2017-03-09T08:08:23.155Z,768
2017-03-09T08:09:37.031Z,636
2017-03-09T08:10:52.677Z,504
2017-03-09T08:12:08.465Z,432
2017-03-09T08:13:22.859Z,416
2017-03-09T08:14:40.681Z,484
2017-03-09T08:15:55.302Z,560
2017-03-09T08:17:53.537Z,656
2017-03-09T08:19:06.987Z,708
2017-03-09T08:20:20.434Z,700
2017-03-09T08:21:33.957Z,648
2017-03-09T08:22:47.796Z,588
2017-03-09T08:25:05.446Z,588
2017-03-09T08:26:18.938Z,624
2017-03-09T08:27:32.498Z,664
2017-03-09T08:28:45.891Z,708
2017-03-09T08:29:59.328Z,812
2017-03-09T08:31:13.796Z,872
2017-03-09T08:32:27.744Z,1056
2017-03-09T08:33:41.199Z,1300
2017-03-09T08:34:55.077Z,1388
2017-03-09T08:36:08.486Z,1244
2017-03-09T08:37:22.345Z,1012
2017-03-09T08:39:51.147Z,972
2017-03-09T08:41:04.612Z,1028
2017-03-09T08:42:18.059Z,1096
2017-03-09T08:43:31.563Z,1128
2017-03-09T08:44:45.020Z,1008
2017-03-09T08:45:58.502Z,932
2017-03-09T08:47:11.952Z,904
2017-03-09T08:48:25.465Z,928
2017-03-09T08:49:38.924Z,1048
2017-03-09T08:50:52.772Z,1192
2017-03-09T08:52:06.235Z,1312
2017-03-09T08:53:19.760Z,1296
2017-03-09T08:54:33.294Z,1136
2017-03-09T08:55:46.787Z,944
2017-03-09T08:57:00.314Z,864
2017-03-09T08:58:14.150Z,888
2017-03-09T08:59:28.043Z,976
2017-03-09T09:00:41.536Z,1088
2017-03-09T09:01:55.046Z,1216
2017-03-09T09:03:08.494Z,1292
2017-03-09T09:04:22.225Z,1192
2017-03-09T09:05:35.667Z,1076
2017-03-09T09:06:49.110Z,1012
2017-03-09T09:08:02.970Z,932
2017-03-09T09:09:16.818Z,916
2017-03-09T09:10:30.284Z,916
2017-03-09T09:11:43.729Z,984
2017-03-09T09:12:58.188Z,1140
2017-03-09T09:14:11.611Z,1304
2017-03-09T09:15:25.058Z,1420
2017-03-09T09:16:38.936Z,1472
2017-03-09T09:17:52.517Z,1520
2017-03-09T09:19:06.410Z,1500
2017-03-09T09:20:19.848Z,1452
2017-03-09T09:21:33.281Z,1380
2017-03-09T09:22:47.412Z,1240
2017-03-09T09:24:00.888Z,1156
2017-03-09T09:25:14.444Z,1112
2017-03-09T09:26:27.900Z,964
2017-03-09T09:27:41.317Z,856
2017-03-09T09:28:55.721Z,868
2017-03-09T09:30:09.270Z,832
2017-03-09T09:31:22.995Z,748
2017-03-09T09:32:36.466Z,732
2017-03-09T09:33:49.995Z,732
2017-03-09T09:35:03.455Z,756
2017-03-09T09:36:16.878Z,788
2017-03-09T09:37:31.301Z,780
2017-03-09T09:38:44.793Z,780
2017-03-09T09:39:58.327Z,872
2017-03-09T09:41:11.782Z,972
2017-03-09T09:42:25.278Z,1220
2017-03-09T09:43:39.588Z,1656
2017-03-09T09:44:53.161Z,1896
2017-03-09T09:46:07.031Z,1784
2017-03-09T09:47:20.493Z,1540
2017-03-09T09:48:34.396Z,1328
2017-03-09T09:49:48.396Z,1184
2017-03-09T09:51:02.383Z,1296
2017-03-09T09:52:16.243Z,1372
2017-03-09T09:53:30.155Z,1436
2017-03-09T09:54:45.916Z,1548
2017-03-09T09:55:59.833Z,1832
2017-03-09T09:57:13.307Z,2348
2017-03-09T09:58:26.742Z,2644
2017-03-09T09:59:40.239Z,2788
2017-03-09T10:00:53.806Z,2944
2017-03-09T10:02:07.692Z,3212
2017-03-09T10:03:21.195Z,3372
2017-03-09T10:04:34.704Z,3120
2017-03-09T10:05:48.350Z,2824
2017-03-09T10:07:02.233Z,2584
2017-03-09T10:08:16.117Z,2540
2017-03-09T10:09:30.037Z,2556
2017-03-09T10:10:44.232Z,2344
2017-03-09T10:11:57.854Z,2284
2017-03-09T10:13:11.432Z,2540
2017-03-09T10:14:25.347Z,2732
2017-03-09T10:15:38.843Z,2616
2017-03-09T10:16:52.876Z,2220
2017-03-09T10:18:06.809Z,1968
2017-03-09T10:19:21.145Z,1756
2017-03-09T10:20:34.658Z,1664
2017-03-09T10:21:48.263Z,1840
2017-03-09T10:23:01.813Z,2020
2017-03-09T10:24:16.523Z,2424
2017-03-09T10:25:30.089Z,2884
2017-03-09T10:26:44.396Z,2676
2017-03-09T10:27:57.928Z,2780
2017-03-09T10:29:11.453Z,2944
2017-03-09T10:30:25.028Z,2852
2017-03-09T10:31:39.348Z,3336
2017-03-09T10:32:53.803Z,3180
2017-03-09T10:34:07.749Z,3280
2017-03-09T10:35:21.849Z,3300
2017-03-09T10:36:36.101Z,2840
2017-03-09T10:37:49.745Z,2884
2017-03-09T10:39:03.241Z,2644
2017-03-09T10:40:17.144Z,2572
2017-03-09T10:41:30.663Z,2860
2017-03-09T10:42:44.758Z,3196
2017-03-09T10:43:58.640Z,3480
2017-03-09T10:45:12.564Z,3232
2017-03-09T10:46:26.060Z,3112
2017-03-09T10:47:39.820Z,3668
2017-03-09T10:48:53.377Z,3628
2017-03-09T10:50:07.715Z,3608
2017-03-09T10:51:21.644Z,3160
2017-03-09T10:52:35.129Z,2824
2017-03-09T10:53:48.712Z,2960
2017-03-09T10:55:02.867Z,2856
2017-03-09T10:56:16.378Z,2680
2017-03-09T10:57:30.313Z,2520
2017-03-09T10:58:43.919Z,2564
2017-03-09T10:59:57.830Z,2396
2017-03-09T11:01:11.638Z,2228
2017-03-09T11:02:25.134Z,1756
2017-03-09T11:03:39.167Z,1644
2017-03-09T11:04:53.458Z,2212
2017-03-09T11:06:07.371Z,2736
2017-03-09T11:07:22.035Z,2756
2017-03-09T11:08:36.017Z,2792
2017-03-09T11:09:50.061Z,2856
2017-03-09T11:11:05.842Z,3352
2017-03-09T11:12:19.507Z,3760
2017-03-09T11:13:33.001Z,4092
2017-03-09T11:14:46.928Z,4120
2017-03-09T11:16:00.846Z,5444
2017-03-09T11:17:14.358Z,6532
2017-03-09T11:18:28.693Z,5736
2017-03-09T11:19:42.656Z,4760
2017-03-09T11:20:56.280Z,4584
2017-03-09T11:22:10.120Z,4060
2017-03-09T11:23:23.615Z,4808
2017-03-09T11:24:37.142Z,5656
2017-03-09T11:25:51.164Z,6152
2017-03-09T11:27:05.214Z,5580
2017-03-09T11:28:19.165Z,4364
2017-03-09T11:29:33.062Z,4736
2017-03-09T11:30:47.050Z,5800
2017-03-09T11:32:01.362Z,5440
2017-03-09T11:33:15.561Z,5664
2017-03-09T11:34:29.094Z,5704
2017-03-09T11:35:42.632Z,4872
2017-03-09T11:36:56.141Z,6264
2017-03-09T11:38:10.065Z,5264
2017-03-09T11:39:23.966Z,5220
2017-03-09T11:40:37.463Z,4884
2017-03-09T11:41:51.438Z,4296
2017-03-09T11:43:04.897Z,4376
2017-03-09T11:44:19.448Z,4264
2017-03-09T11:45:32.920Z,4904
2017-03-09T11:46:46.525Z,5488
2017-03-09T11:48:00.029Z,4660
2017-03-09T11:49:13.953Z,5304
2017-03-09T11:50:27.604Z,5556
2017-03-09T11:51:41.055Z,3972
2017-03-09T11:52:54.612Z,4572
2017-03-09T11:54:08.513Z,3212
2017-03-09T11:55:22.056Z,3872
2017-03-09T11:56:35.964Z,4352
2017-03-09T11:57:50.032Z,5028
2017-03-09T11:59:03.952Z,4344
2017-03-09T12:00:17.508Z,4892
2017-03-09T12:01:31.529Z,4540
2017-03-09T12:02:45.152Z,3892
2017-03-09T12:03:58.623Z,3716
2017-03-09T12:05:12.086Z,3996
2017-03-09T12:06:26.105Z,4640
2017-03-09T12:07:39.597Z,4700
2017-03-09T12:08:53.095Z,4500
2017-03-09T12:10:06.959Z,3932
2017-03-09T12:11:20.887Z,3012
2017-03-09T12:12:34.342Z,2084
2017-03-09T12:13:47.913Z,1764
2017-03-09T12:15:01.410Z,2292
2017-03-09T12:16:15.319Z,2768
2017-03-09T12:17:28.837Z,2572
2017-03-09T12:18:42.861Z,2480
2017-03-09T12:19:56.858Z,2432
2017-03-09T12:21:10.343Z,2240
2017-03-09T12:22:24.294Z,2376
2017-03-09T12:23:37.880Z,2128
2017-03-09T12:24:51.817Z,2016
2017-03-09T12:26:05.291Z,1988
2017-03-09T12:27:20.984Z,2004
2017-03-09T12:28:34.935Z,2008
2017-03-09T12:29:48.512Z,2000
2017-03-09T12:31:02.092Z,1988
2017-03-09T12:32:16.141Z,1992
2017-03-09T12:33:29.709Z,2004
2017-03-09T12:34:43.320Z,2236
2017-03-09T12:35:56.776Z,2084
2017-03-09T12:37:10.694Z,2024
2017-03-09T12:38:24.968Z,1992
2017-03-09T12:39:38.524Z,1996
2017-03-09T12:40:52.098Z,2040
2017-03-09T12:42:05.848Z,2316
2017-03-09T12:43:19.289Z,2540
2017-03-09T12:44:33.261Z,2332
2017-03-09T12:45:46.859Z,2028
2017-03-09T12:47:00.742Z,1964
2017-03-09T12:48:14.299Z,2128
2017-03-09T12:49:28.614Z,2156
2017-03-09T12:50:42.262Z,2412
2017-03-09T12:51:56.931Z,2700
2017-03-09T12:53:10.922Z,2684
2017-03-09T12:54:24.514Z,2396
2017-03-09T12:55:38.043Z,2592
2017-03-09T12:56:52.008Z,2220
2017-03-09T12:58:05.807Z,3240
2017-03-09T12:59:19.745Z,3360
2017-03-09T13:00:33.415Z,2540
2017-03-09T13:01:46.969Z,2528
2017-03-09T13:03:00.496Z,2496
2017-03-09T13:04:14.060Z,2452
2017-03-09T13:05:27.530Z,3032
2017-03-09T13:06:41.901Z,2220
2017-03-09T13:07:55.840Z,1956
2017-03-09T13:09:09.344Z,2184
2017-03-09T13:10:23.357Z,2392
2017-03-09T13:11:37.681Z,2148
2017-03-09T13:12:51.197Z,2568
2017-03-09T13:14:04.741Z,2392
2017-03-09T13:15:19.121Z,2388
2017-03-09T13:16:33.151Z,2432
2017-03-09T13:17:46.643Z,2520
2017-03-09T13:19:00.154Z,2552
2017-03-09T13:20:13.699Z,2476
2017-03-09T13:21:27.837Z,2188
2017-03-09T13:22:41.804Z,2548
2017-03-09T13:23:55.682Z,3164
2017-03-09T13:25:09.644Z,3760
2017-03-09T13:26:23.276Z,4464
2017-03-09T13:27:37.483Z,4228
2017-03-09T13:28:50.933Z,3316
2017-03-09T13:30:04.452Z,2804
2017-03-09T13:31:17.991Z,2812
2017-03-09T13:32:31.614Z,2752
2017-03-09T13:33:45.610Z,2396
2017-03-09T13:34:59.109Z,2808
2017-03-09T13:36:13.028Z,2624
2017-03-09T13:37:27.515Z,3264
2017-03-09T13:38:41.834Z,3532
2017-03-09T13:39:55.697Z,3164
2017-03-09T13:41:09.150Z,2716
2017-03-09T13:42:22.642Z,3216
2017-03-09T13:43:39.554Z,2752
2017-03-09T13:44:53.050Z,2512
2017-03-09T13:46:06.515Z,2044
2017-03-09T13:47:20.008Z,1848
2017-03-09T13:48:33.525Z,1424
2017-03-09T13:49:47.002Z,1052
2017-03-09T13:51:00.515Z,1048
2017-03-09T13:52:13.989Z,1192
2017-03-09T13:53:28.169Z,1440
2017-03-09T13:54:42.093Z,1600
2017-03-09T13:55:55.958Z,1904
2017-03-09T13:57:09.416Z,1844
2017-03-09T13:58:22.932Z,1600
2017-03-09T13:59:37.188Z,1596
2017-03-09T14:00:50.622Z,1632
2017-03-09T14:02:04.530Z,1736
2017-03-09T14:03:18.008Z,1756
2017-03-09T14:04:31.901Z,1748
2017-03-09T14:05:45.856Z,1668
2017-03-09T14:06:59.741Z,1560
2017-03-09T14:08:13.192Z,1492
2017-03-09T14:09:27.079Z,1560
2017-03-09T14:10:40.591Z,1676
2017-03-09T14:11:54.305Z,1644
2017-03-09T14:13:07.825Z,1552
2017-03-09T14:14:21.754Z,1564
2017-03-09T14:15:54.498Z,1796
2017-03-09T14:17:07.939Z,1784
2017-03-09T14:18:21.426Z,1684
2017-03-09T14:19:35.703Z,1436
2017-03-09T14:20:49.699Z,1308
2017-03-09T14:22:03.161Z,1352
2017-03-09T14:23:16.714Z,1304
2017-03-09T14:24:30.224Z,1344
2017-03-09T14:25:43.675Z,1496
2017-03-09T14:26:57.654Z,1704
2017-03-09T14:28:12.005Z,2096
2017-03-09T14:29:25.939Z,2324
2017-03-09T14:30:39.675Z,2308
2017-03-09T14:31:53.222Z,1664
2017-03-09T14:33:06.688Z,1668
2017-03-09T14:34:20.140Z,1684
2017-03-09T14:35:34.226Z,1652
2017-03-09T14:36:47.804Z,1708
2017-03-09T14:38:01.312Z,1884
2017-03-09T14:39:14.775Z,1640
2017-03-09T14:40:28.237Z,1648
2017-03-09T14:41:41.812Z,1668
2017-03-09T14:42:55.425Z,1696
2017-03-09T14:44:09.351Z,1680
2017-03-09T14:45:22.878Z,1952
2017-03-09T14:47:53.079Z,2332
2017-03-09T14:49:06.551Z,1932
2017-03-09T14:50:20.197Z,1592
2017-03-09T14:51:35.016Z,1548
2017-03-09T14:52:48.939Z,1756
2017-03-09T14:54:03.202Z,1988
2017-03-09T14:55:17.155Z,1868
2017-03-09T14:56:31.120Z,2576
2017-03-09T14:57:44.652Z,2628
2017-03-09T14:59:42.863Z,2428
2017-03-09T15:00:56.364Z,3772
2017-03-09T15:02:12.094Z,3344
2017-03-09T15:03:25.986Z,2644
2017-03-09T15:04:39.511Z,2352
2017-03-09T15:05:53.018Z,2356
2017-03-09T15:07:06.944Z,2604
2017-03-09T15:08:20.432Z,2620
2017-03-09T15:09:33.962Z,2480
2017-03-09T15:10:47.563Z,2484
2017-03-09T15:12:01.611Z,2900
2017-03-09T15:13:15.325Z,3044
2017-03-09T15:14:28.895Z,3728
2017-03-09T15:15:43.440Z,3420
2017-03-09T15:16:56.958Z,3688
2017-03-09T15:18:10.432Z,4148
2017-03-09T15:19:23.934Z,3904
2017-03-09T15:20:37.475Z,4444
2017-03-09T15:21:51.446Z,4456
2017-03-09T15:23:04.999Z,3900
2017-03-09T15:24:18.468Z,3232
2017-03-09T15:25:31.964Z,2776
2017-03-09T15:26:45.547Z,2524
2017-03-09T15:27:59.043Z,2072
2017-03-09T15:29:55.261Z,1120
2017-03-09T15:31:08.718Z,948
2017-03-09T15:32:23.038Z,844
2017-03-09T15:33:36.548Z,836
2017-03-09T15:34:50.020Z,928
2017-03-09T15:36:03.967Z,936
2017-03-09T15:37:17.485Z,944
2017-03-09T15:38:30.931Z,1060
2017-03-09T15:39:44.809Z,1268
2017-03-09T15:40:58.308Z,1568
2017-03-09T15:42:12.208Z,1576
2017-03-09T15:43:41.779Z,1656
2017-03-09T15:45:01.516Z,1380
2017-03-09T15:46:25.356Z,1392
2017-03-09T15:47:50.224Z,1140
2017-03-09T15:49:13.284Z,1052
2017-03-09T15:50:31.443Z,1164
2017-03-09T15:51:45.346Z,1108
2017-03-09T15:52:59.218Z,1268
2017-03-09T15:54:13.313Z,1256
2017-03-09T15:55:52.913Z,1132
2017-03-09T15:57:06.463Z,1188
2017-03-09T15:58:20.132Z,1416
2017-03-09T15:59:33.665Z,1572
2017-03-09T16:00:47.128Z,1408
2017-03-09T16:02:00.983Z,1292
2017-03-09T16:03:15.091Z,1208
2017-03-09T16:04:30.362Z,1552
2017-03-09T16:05:44.375Z,1408
2017-03-09T16:06:58.858Z,1208
2017-03-09T16:08:13.194Z,1128
2017-03-09T16:09:26.927Z,1196
2017-03-09T16:10:40.480Z,1232
2017-03-09T16:11:53.978Z,1136
2017-03-09T16:13:07.752Z,1128
2017-03-09T16:14:22.296Z,1180
2017-03-09T16:15:36.093Z,1180
2017-03-09T16:16:49.552Z,1208
2017-03-09T16:18:03.001Z,1188
2017-03-09T16:19:16.487Z,1164
2017-03-09T16:20:32.618Z,1180
2017-03-09T16:21:46.369Z,1232
2017-03-09T16:22:59.992Z,1236
2017-03-09T16:24:13.449Z,1276
2017-03-09T16:25:27.853Z,1252
2017-03-09T16:26:41.418Z,1224
2017-03-09T16:27:55.162Z,1236
2017-03-09T16:29:08.627Z,1236
2017-03-09T16:30:22.219Z,1364
2017-03-09T16:31:35.708Z,1508
2017-03-09T16:32:49.189Z,1296
2017-03-09T16:34:02.950Z,1160
2017-03-09T16:35:16.586Z,1028
2017-03-09T16:36:30.025Z,956
2017-03-09T16:37:43.498Z,912
2017-03-09T16:38:57.550Z,824
2017-03-09T16:40:11.338Z,788
2017-03-09T16:41:25.393Z,844
2017-03-09T16:42:39.412Z,728
2017-03-09T16:43:53.901Z,640
2017-03-09T16:45:08.504Z,624
2017-03-09T16:46:22.933Z,624
2017-03-09T16:47:36.820Z,484
2017-03-09T16:48:50.260Z,368
2017-03-09T16:50:04.188Z,360
2017-03-09T16:51:18.331Z,448
2017-03-09T16:52:32.304Z,428
2017-03-09T16:53:46.452Z,400
2017-03-09T16:55:00.007Z,516
2017-03-09T16:56:13.603Z,580
2017-03-09T16:57:27.208Z,528
2017-03-09T16:58:40.918Z,424
2017-03-09T16:59:54.464Z,372
2017-03-09T17:01:09.228Z,324
2017-03-09T17:02:22.779Z,328
2017-03-09T17:03:36.659Z,316
2017-03-09T17:04:51.006Z,304
2017-03-09T17:06:04.866Z,296
2017-03-09T17:07:18.403Z,284
2017-03-09T17:08:31.880Z,252
2017-03-09T17:09:45.773Z,236
2017-03-09T17:10:59.217Z,220
2017-03-09T17:12:12.833Z,192
2017-03-09T17:13:26.339Z,172
2017-03-09T17:14:39.880Z,160
2017-03-09T17:15:53.321Z,144
2017-03-09T17:17:11.254Z,132
2017-03-09T17:18:26.221Z,116
2017-03-09T17:19:40.795Z,104
2017-03-09T17:20:55.116Z,88
2017-03-09T17:22:08.539Z,80
2017-03-09T17:23:22.051Z,72
2017-03-09T17:24:35.537Z,64